sensor_id;sensor_type;location;lat;lon;timestamp;P1;durP1;ratioP1;P2;durP2;ratioP2
3991;SDS011;2010;48.194;16.394;2023-01-28T00:01:32;38.00;;;17.53;;
3991;SDS011;2010;48.194;16.394;2023-01-28T00:04:04;41.63;;;16.70;;
3991;SDS011;2010;48.194;16.394;2023-01-28T00:06:34;32.63;;;19.10;;
3991;SDS011;2010;48.194;16.394;2023-01-28T00:09:03;28.93;;;16.80;;
3991;SDS011;2010;48.194;16.394;2023-01-28T00:15:18;31.40;;;16.73;;
3991;SDS011;2010;48.194;16.394;2023-01-28T00:17:59;32.80;;;17.37;;
3991;SDS011;2010;48.194;16.394;2023-01-28T00:20:31;28.03;;;15.90;;
3991;SDS011;2010;48.194;16.394;2023-01-28T00:23:12;33.37;;;17.00;;
3991;SDS011;2010;48.194;16.394;2023-01-28T00:39:45;33.03;;;17.60;;
3991;SDS011;2010;48.194;16.394;2023-01-28T00:45:15;34.40;;;19.27;;
3991;SDS011;2010;48.194;16.394;2023-01-28T00:47:46;30.27;;;16.90;;
3991;SDS011;2010;48.194;16.394;2023-01-28T00:50:27;31.97;;;17.87;;
3991;SDS011;2010;48.194;16.394;2023-01-28T00:53:02;33.10;;;17.93;;
3991;SDS011;2010;48.194;16.394;2023-01-28T01:10:59;41.07;;;21.47;;
3991;SDS011;2010;48.194;16.394;2023-01-28T01:22:34;42.70;;;21.50;;
3991;SDS011;2010;48.194;16.394;2023-01-28T01:37:00;38.30;;;20.70;;
3991;SDS011;2010;48.194;16.394;2023-01-28T01:39:32;39.33;;;20.83;;
3991;SDS011;2010;48.194;16.394;2023-01-28T01:42:03;39.67;;;22.93;;
3991;SDS011;2010;48.194;16.394;2023-01-28T01:44:51;43.27;;;21.33;;
3991;SDS011;2010;48.194;16.394;2023-01-28T01:47:30;41.00;;;21.43;;
3991;SDS011;2010;48.194;16.394;2023-01-28T01:55:59;38.03;;;21.13;;
3991;SDS011;2010;48.194;16.394;2023-01-28T01:58:34;41.30;;;22.20;;
3991;SDS011;2010;48.194;16.394;2023-01-28T02:01:06;34.00;;;19.57;;
3991;SDS011;2010;48.194;16.394;2023-01-28T02:06:47;36.87;;;19.87;;
3991;SDS011;2010;48.194;16.394;2023-01-28T02:09:34;37.30;;;21.43;;
3991;SDS011;2010;48.194;16.394;2023-01-28T02:25:06;43.60;;;20.73;;
3991;SDS011;2010;48.194;16.394;2023-01-28T02:31:23;38.70;;;21.30;;
3991;SDS011;2010;48.194;16.394;2023-01-28T02:46:17;37.67;;;20.63;;
3991;SDS011;2010;48.194;16.394;2023-01-28T02:49:11;41.20;;;21.27;;
3991;SDS011;2010;48.194;16.394;2023-01-28T02:51:52;47.33;;;22.60;;
3991;SDS011;2010;48.194;16.394;2023-01-28T03:00:38;40.40;;;21.47;;
3991;SDS011;2010;48.194;16.394;2023-01-28T03:06:14;41.03;;;21.87;;
3991;SDS011;2010;48.194;16.394;2023-01-28T03:09:00;42.53;;;20.70;;
3991;SDS011;2010;48.194;16.394;2023-01-28T03:42:53;40.00;;;21.50;;
3991;SDS011;2010;48.194;16.394;2023-01-28T03:51:54;43.70;;;21.90;;
3991;SDS011;2010;48.194;16.394;2023-01-28T04:18:20;42.53;;;22.47;;
3991;SDS011;2010;48.194;16.394;2023-01-28T04:20:58;40.60;;;22.37;;
3991;SDS011;2010;48.194;16.394;2023-01-28T04:23:29;37.07;;;21.03;;
3991;SDS011;2010;48.194;16.394;2023-01-28T04:35:14;47.60;;;24.13;;
3991;SDS011;2010;48.194;16.394;2023-01-28T04:38:06;40.87;;;21.37;;
3991;SDS011;2010;48.194;16.394;2023-01-28T04:40:59;47.60;;;24.10;;
3991;SDS011;2010;48.194;16.394;2023-01-28T04:43:37;47.80;;;24.13;;
3991;SDS011;2010;48.194;16.394;2023-01-28T04:58:05;43.30;;;22.70;;
3991;SDS011;2010;48.194;16.394;2023-01-28T05:00:39;51.67;;;24.20;;
3991;SDS011;2010;48.194;16.394;2023-01-28T05:03:26;46.37;;;23.60;;
3991;SDS011;2010;48.194;16.394;2023-01-28T05:05:56;46.60;;;23.17;;
3991;SDS011;2010;48.194;16.394;2023-01-28T05:08:44;39.43;;;21.83;;
3991;SDS011;2010;48.194;16.394;2023-01-28T05:11:16;45.30;;;24.27;;
3991;SDS011;2010;48.194;16.394;2023-01-28T05:13:58;40.87;;;23.37;;
3991;SDS011;2010;48.194;16.394;2023-01-28T05:19:29;43.43;;;23.03;;
3991;SDS011;2010;48.194;16.394;2023-01-28T05:22:14;41.20;;;21.97;;
3991;SDS011;2010;48.194;16.394;2023-01-28T05:34:20;39.73;;;20.90;;
3991;SDS011;2010;48.194;16.394;2023-01-28T05:37:11;45.27;;;21.53;;
3991;SDS011;2010;48.194;16.394;2023-01-28T05:40:18;46.53;;;21.60;;
3991;SDS011;2010;48.194;16.394;2023-01-28T05:43:06;45.47;;;23.50;;
3991;SDS011;2010;48.194;16.394;2023-01-28T05:45:40;40.60;;;22.40;;
3991;SDS011;2010;48.194;16.394;2023-01-28T05:48:34;44.30;;;23.80;;
3991;SDS011;2010;48.194;16.394;2023-01-28T05:51:39;46.50;;;23.10;;
3991;SDS011;2010;48.194;16.394;2023-01-28T06:09:22;47.60;;;23.80;;
3991;SDS011;2010;48.194;16.394;2023-01-28T06:15:02;40.57;;;20.63;;
3991;SDS011;2010;48.194;16.394;2023-01-28T06:17:53;40.40;;;22.30;;
3991;SDS011;2010;48.194;16.394;2023-01-28T06:20:29;37.30;;;20.00;;
3991;SDS011;2010;48.194;16.394;2023-01-28T06:23:01;32.97;;;19.57;;
3991;SDS011;2010;48.194;16.394;2023-01-28T06:37:46;42.47;;;21.70;;
3991;SDS011;2010;48.194;16.394;2023-01-28T06:43:24;37.00;;;21.10;;
3991;SDS011;2010;48.194;16.394;2023-01-28T06:45:57;46.63;;;22.23;;
3991;SDS011;2010;48.194;16.394;2023-01-28T07:19:05;44.57;;;22.47;;
3991;SDS011;2010;48.194;16.394;2023-01-28T07:21:36;42.90;;;22.90;;
3991;SDS011;2010;48.194;16.394;2023-01-28T07:24:06;42.87;;;21.90;;
3991;SDS011;2010;48.194;16.394;2023-01-28T07:26:46;47.07;;;23.30;;
3991;SDS011;2010;48.194;16.394;2023-01-28T07:35:29;43.67;;;22.77;;
3991;SDS011;2010;48.194;16.394;2023-01-28T07:38:02;41.90;;;22.60;;
3991;SDS011;2010;48.194;16.394;2023-01-28T07:40:34;39.77;;;23.40;;
3991;SDS011;2010;48.194;16.394;2023-01-28T07:43:35;35.70;;;20.97;;
3991;SDS011;2010;48.194;16.394;2023-01-28T07:46:09;43.97;;;22.30;;
3991;SDS011;2010;48.194;16.394;2023-01-28T07:48:48;46.47;;;23.17;;
3991;SDS011;2010;48.194;16.394;2023-01-28T08:00:38;46.43;;;22.03;;
3991;SDS011;2010;48.194;16.394;2023-01-28T08:12:22;43.00;;;20.90;;
3991;SDS011;2010;48.194;16.394;2023-01-28T08:14:59;42.40;;;22.30;;
3991;SDS011;2010;48.194;16.394;2023-01-28T08:17:32;37.07;;;22.27;;
3991;SDS011;2010;48.194;16.394;2023-01-28T08:20:05;42.33;;;23.07;;
3991;SDS011;2010;48.194;16.394;2023-01-28T08:22:38;41.83;;;22.70;;
3991;SDS011;2010;48.194;16.394;2023-01-28T08:25:08;43.13;;;22.83;;
3991;SDS011;2010;48.194;16.394;2023-01-28T08:27:37;45.73;;;23.47;;
3991;SDS011;2010;48.194;16.394;2023-01-28T08:30:09;53.33;;;24.70;;
3991;SDS011;2010;48.194;16.394;2023-01-28T08:32:49;44.60;;;22.23;;
3991;SDS011;2010;48.194;16.394;2023-01-28T08:35:26;39.37;;;22.10;;
3991;SDS011;2010;48.194;16.394;2023-01-28T08:37:58;41.10;;;20.57;;
3991;SDS011;2010;48.194;16.394;2023-01-28T08:40:28;39.97;;;21.30;;
3991;SDS011;2010;48.194;16.394;2023-01-28T08:43:02;41.77;;;22.03;;
3991;SDS011;2010;48.194;16.394;2023-01-28T08:45:39;46.17;;;22.60;;
3991;SDS011;2010;48.194;16.394;2023-01-28T08:48:11;44.10;;;23.20;;
3991;SDS011;2010;48.194;16.394;2023-01-28T08:50:45;41.77;;;22.07;;
3991;SDS011;2010;48.194;16.394;2023-01-28T08:53:15;38.97;;;20.83;;
3991;SDS011;2010;48.194;16.394;2023-01-28T08:55:49;41.60;;;22.00;;
3991;SDS011;2010;48.194;16.394;2023-01-28T08:58:29;39.03;;;21.70;;
3991;SDS011;2010;48.194;16.394;2023-01-28T09:01:06;46.90;;;23.23;;
3991;SDS011;2010;48.194;16.394;2023-01-28T09:03:52;45.63;;;24.27;;
3991;SDS011;2010;48.194;16.394;2023-01-28T09:06:28;38.57;;;21.07;;
3991;SDS011;2010;48.194;16.394;2023-01-28T09:09:06;43.30;;;22.73;;
3991;SDS011;2010;48.194;16.394;2023-01-28T09:11:51;41.87;;;21.53;;
3991;SDS011;2010;48.194;16.394;2023-01-28T09:14:29;42.33;;;22.10;;
3991;SDS011;2010;48.194;16.394;2023-01-28T09:17:02;37.57;;;19.30;;
3991;SDS011;2010;48.194;16.394;2023-01-28T09:19:48;44.20;;;20.87;;
3991;SDS011;2010;48.194;16.394;2023-01-28T09:22:20;41.40;;;22.47;;
3991;SDS011;2010;48.194;16.394;2023-01-28T09:24:49;49.23;;;21.20;;
3991;SDS011;2010;48.194;16.394;2023-01-28T09:27:27;40.93;;;22.97;;
3991;SDS011;2010;48.194;16.394;2023-01-28T09:30:00;47.57;;;24.10;;
3991;SDS011;2010;48.194;16.394;2023-01-28T09:32:41;45.27;;;21.50;;
3991;SDS011;2010;48.194;16.394;2023-01-28T09:35:14;40.80;;;20.80;;
3991;SDS011;2010;48.194;16.394;2023-01-28T09:37:46;41.57;;;22.20;;
3991;SDS011;2010;48.194;16.394;2023-01-28T09:40:19;43.13;;;22.43;;
3991;SDS011;2010;48.194;16.394;2023-01-28T09:42:58;39.03;;;21.10;;
3991;SDS011;2010;48.194;16.394;2023-01-28T09:45:49;37.63;;;20.77;;
3991;SDS011;2010;48.194;16.394;2023-01-28T09:48:26;44.40;;;21.30;;
3991;SDS011;2010;48.194;16.394;2023-01-28T09:54:14;39.37;;;21.07;;
3991;SDS011;2010;48.194;16.394;2023-01-28T09:56:52;40.70;;;21.00;;
3991;SDS011;2010;48.194;16.394;2023-01-28T09:59:32;36.60;;;20.90;;
3991;SDS011;2010;48.194;16.394;2023-01-28T10:02:26;39.87;;;21.27;;
3991;SDS011;2010;48.194;16.394;2023-01-28T10:05:15;32.20;;;18.77;;
3991;SDS011;2010;48.194;16.394;2023-01-28T10:07:58;35.90;;;19.90;;
3991;SDS011;2010;48.194;16.394;2023-01-28T10:10:39;39.10;;;20.70;;
3991;SDS011;2010;48.194;16.394;2023-01-28T10:13:19;34.77;;;20.47;;
3991;SDS011;2010;48.194;16.394;2023-01-28T10:16:23;37.23;;;19.53;;
3991;SDS011;2010;48.194;16.394;2023-01-28T10:19:06;36.90;;;19.83;;
3991;SDS011;2010;48.194;16.394;2023-01-28T10:21:48;40.50;;;21.03;;
3991;SDS011;2010;48.194;16.394;2023-01-28T10:24:27;33.67;;;19.40;;
3991;SDS011;2010;48.194;16.394;2023-01-28T10:27:09;37.67;;;19.03;;
3991;SDS011;2010;48.194;16.394;2023-01-28T10:29:47;37.77;;;20.07;;
3991;SDS011;2010;48.194;16.394;2023-01-28T10:32:21;36.50;;;20.27;;
3991;SDS011;2010;48.194;16.394;2023-01-28T10:34:55;39.23;;;21.13;;
3991;SDS011;2010;48.194;16.394;2023-01-28T10:37:25;43.70;;;21.80;;
3991;SDS011;2010;48.194;16.394;2023-01-28T10:39:59;39.60;;;19.67;;
3991;SDS011;2010;48.194;16.394;2023-01-28T10:42:37;38.70;;;21.10;;
3991;SDS011;2010;48.194;16.394;2023-01-28T10:45:14;47.87;;;22.07;;
3991;SDS011;2010;48.194;16.394;2023-01-28T10:47:50;40.03;;;20.20;;
3991;SDS011;2010;48.194;16.394;2023-01-28T10:50:29;33.03;;;18.80;;
3991;SDS011;2010;48.194;16.394;2023-01-28T10:53:06;44.00;;;19.60;;
3991;SDS011;2010;48.194;16.394;2023-01-28T10:55:47;47.97;;;21.70;;
3991;SDS011;2010;48.194;16.394;2023-01-28T10:58:30;38.20;;;20.03;;
3991;SDS011;2010;48.194;16.394;2023-01-28T11:01:05;37.50;;;20.03;;
3991;SDS011;2010;48.194;16.394;2023-01-28T11:03:39;39.07;;;21.27;;
3991;SDS011;2010;48.194;16.394;2023-01-28T11:06:25;37.40;;;21.03;;
3991;SDS011;2010;48.194;16.394;2023-01-28T11:09:18;40.23;;;21.67;;
3991;SDS011;2010;48.194;16.394;2023-01-28T11:12:37;42.10;;;22.47;;
3991;SDS011;2010;48.194;16.394;2023-01-28T11:15:16;42.60;;;21.50;;
3991;SDS011;2010;48.194;16.394;2023-01-28T11:17:50;41.93;;;21.73;;
3991;SDS011;2010;48.194;16.394;2023-01-28T11:20:29;37.67;;;20.00;;
3991;SDS011;2010;48.194;16.394;2023-01-28T11:23:17;42.10;;;23.47;;
3991;SDS011;2010;48.194;16.394;2023-01-28T11:26:04;42.67;;;22.90;;
3991;SDS011;2010;48.194;16.394;2023-01-28T11:28:42;42.10;;;22.17;;
3991;SDS011;2010;48.194;16.394;2023-01-28T11:31:15;45.87;;;22.83;;
3991;SDS011;2010;48.194;16.394;2023-01-28T11:33:55;42.77;;;23.10;;
3991;SDS011;2010;48.194;16.394;2023-01-28T11:36:34;46.07;;;23.53;;
3991;SDS011;2010;48.194;16.394;2023-01-28T11:39:13;53.33;;;25.03;;
3991;SDS011;2010;48.194;16.394;2023-01-28T11:41:51;43.40;;;22.67;;
3991;SDS011;2010;48.194;16.394;2023-01-28T11:44:23;48.13;;;22.40;;
3991;SDS011;2010;48.194;16.394;2023-01-28T11:46:58;44.50;;;22.60;;
3991;SDS011;2010;48.194;16.394;2023-01-28T11:49:36;41.93;;;21.03;;
3991;SDS011;2010;48.194;16.394;2023-01-28T11:52:18;43.40;;;22.70;;
3991;SDS011;2010;48.194;16.394;2023-01-28T11:54:54;37.33;;;20.47;;
3991;SDS011;2010;48.194;16.394;2023-01-28T11:57:30;42.83;;;21.97;;
3991;SDS011;2010;48.194;16.394;2023-01-28T12:00:14;41.53;;;21.60;;
3991;SDS011;2010;48.194;16.394;2023-01-28T12:03:08;41.57;;;19.67;;
3991;SDS011;2010;48.194;16.394;2023-01-28T12:09:19;40.03;;;20.70;;
3991;SDS011;2010;48.194;16.394;2023-01-28T12:11:56;36.30;;;20.53;;
3991;SDS011;2010;48.194;16.394;2023-01-28T12:18:08;41.40;;;20.47;;
3991;SDS011;2010;48.194;16.394;2023-01-28T12:21:35;42.50;;;20.43;;
3991;SDS011;2010;48.194;16.394;2023-01-28T12:24:30;38.93;;;21.07;;
3991;SDS011;2010;48.194;16.394;2023-01-28T12:27:29;44.83;;;23.27;;
3991;SDS011;2010;48.194;16.394;2023-01-28T12:30:15;35.70;;;19.90;;
3991;SDS011;2010;48.194;16.394;2023-01-28T12:33:05;37.33;;;19.80;;
3991;SDS011;2010;48.194;16.394;2023-01-28T12:35:48;36.23;;;19.83;;
3991;SDS011;2010;48.194;16.394;2023-01-28T12:38:42;36.10;;;20.23;;
3991;SDS011;2010;48.194;16.394;2023-01-28T12:41:17;40.27;;;21.50;;
3991;SDS011;2010;48.194;16.394;2023-01-28T12:43:57;35.10;;;19.50;;
3991;SDS011;2010;48.194;16.394;2023-01-28T12:46:32;40.97;;;24.87;;
3991;SDS011;2010;48.194;16.394;2023-01-28T12:49:11;46.87;;;27.00;;
3991;SDS011;2010;48.194;16.394;2023-01-28T12:51:48;44.10;;;23.67;;
3991;SDS011;2010;48.194;16.394;2023-01-28T12:54:26;42.70;;;21.20;;
3991;SDS011;2010;48.194;16.394;2023-01-28T12:56:58;40.40;;;20.43;;
3991;SDS011;2010;48.194;16.394;2023-01-28T12:59:28;40.43;;;20.53;;
3991;SDS011;2010;48.194;16.394;2023-01-28T13:02:03;39.90;;;18.17;;
3991;SDS011;2010;48.194;16.394;2023-01-28T13:04:55;37.30;;;19.57;;
3991;SDS011;2010;48.194;16.394;2023-01-28T13:07:32;37.30;;;18.70;;
3991;SDS011;2010;48.194;16.394;2023-01-28T13:10:03;39.07;;;18.00;;
3991;SDS011;2010;48.194;16.394;2023-01-28T13:12:35;40.97;;;19.67;;
3991;SDS011;2010;48.194;16.394;2023-01-28T13:15:09;44.93;;;19.90;;
3991;SDS011;2010;48.194;16.394;2023-01-28T13:17:59;34.97;;;19.47;;
3991;SDS011;2010;48.194;16.394;2023-01-28T13:20:45;41.37;;;19.50;;
3991;SDS011;2010;48.194;16.394;2023-01-28T13:23:22;37.43;;;20.23;;
3991;SDS011;2010;48.194;16.394;2023-01-28T13:25:53;42.03;;;20.90;;
3991;SDS011;2010;48.194;16.394;2023-01-28T13:28:30;42.77;;;20.50;;
3991;SDS011;2010;48.194;16.394;2023-01-28T13:31:08;39.63;;;18.77;;
3991;SDS011;2010;48.194;16.394;2023-01-28T13:33:59;43.00;;;21.60;;
3991;SDS011;2010;48.194;16.394;2023-01-28T13:36:36;41.73;;;21.07;;
3991;SDS011;2010;48.194;16.394;2023-01-28T13:39:17;36.60;;;20.70;;
3991;SDS011;2010;48.194;16.394;2023-01-28T13:42:06;36.70;;;20.47;;
3991;SDS011;2010;48.194;16.394;2023-01-28T13:44:43;40.83;;;20.40;;
3991;SDS011;2010;48.194;16.394;2023-01-28T13:47:18;38.93;;;19.43;;
3991;SDS011;2010;48.194;16.394;2023-01-28T13:50:00;38.40;;;19.47;;
3991;SDS011;2010;48.194;16.394;2023-01-28T13:52:41;39.80;;;21.50;;
3991;SDS011;2010;48.194;16.394;2023-01-28T13:55:17;39.53;;;21.70;;
3991;SDS011;2010;48.194;16.394;2023-01-28T13:58:15;38.33;;;20.37;;
3991;SDS011;2010;48.194;16.394;2023-01-28T14:11:00;42.07;;;19.40;;
3991;SDS011;2010;48.194;16.394;2023-01-28T14:14:11;40.40;;;20.63;;
3991;SDS011;2010;48.194;16.394;2023-01-28T14:17:16;33.63;;;18.87;;
3991;SDS011;2010;48.194;16.394;2023-01-28T14:19:53;39.20;;;19.27;;
3991;SDS011;2010;48.194;16.394;2023-01-28T14:22:30;41.83;;;19.80;;
3991;SDS011;2010;48.194;16.394;2023-01-28T14:25:10;39.53;;;20.07;;
3991;SDS011;2010;48.194;16.394;2023-01-28T14:27:44;38.53;;;19.73;;
3991;SDS011;2010;48.194;16.394;2023-01-28T14:30:17;40.40;;;18.93;;
3991;SDS011;2010;48.194;16.394;2023-01-28T14:32:57;33.53;;;17.70;;
3991;SDS011;2010;48.194;16.394;2023-01-28T14:35:31;36.43;;;19.40;;
3991;SDS011;2010;48.194;16.394;2023-01-28T14:38:07;37.83;;;19.43;;
3991;SDS011;2010;48.194;16.394;2023-01-28T14:40:43;42.23;;;19.93;;
3991;SDS011;2010;48.194;16.394;2023-01-28T14:43:18;43.17;;;21.50;;
3991;SDS011;2010;48.194;16.394;2023-01-28T14:45:59;32.13;;;18.70;;
3991;SDS011;2010;48.194;16.394;2023-01-28T14:48:35;38.07;;;20.87;;
3991;SDS011;2010;48.194;16.394;2023-01-28T14:51:30;35.60;;;19.30;;
3991;SDS011;2010;48.194;16.394;2023-01-28T14:57:40;40.30;;;20.20;;
3991;SDS011;2010;48.194;16.394;2023-01-28T15:03:17;44.53;;;21.23;;
3991;SDS011;2010;48.194;16.394;2023-01-28T15:06:11;40.43;;;20.17;;
3991;SDS011;2010;48.194;16.394;2023-01-28T15:08:47;42.90;;;21.23;;
3991;SDS011;2010;48.194;16.394;2023-01-28T15:11:21;36.70;;;20.27;;
3991;SDS011;2010;48.194;16.394;2023-01-28T15:13:55;39.90;;;20.40;;
3991;SDS011;2010;48.194;16.394;2023-01-28T15:16:28;36.50;;;20.43;;
3991;SDS011;2010;48.194;16.394;2023-01-28T15:19:05;37.50;;;19.33;;
3991;SDS011;2010;48.194;16.394;2023-01-28T15:21:36;42.97;;;19.33;;
3991;SDS011;2010;48.194;16.394;2023-01-28T15:24:09;38.13;;;19.87;;
3991;SDS011;2010;48.194;16.394;2023-01-28T15:26:48;40.30;;;21.53;;
3991;SDS011;2010;48.194;16.394;2023-01-28T15:29:22;36.77;;;19.33;;
3991;SDS011;2010;48.194;16.394;2023-01-28T15:32:01;40.97;;;20.90;;
3991;SDS011;2010;48.194;16.394;2023-01-28T15:34:44;37.23;;;19.63;;
3991;SDS011;2010;48.194;16.394;2023-01-28T15:37:17;39.27;;;18.93;;
3991;SDS011;2010;48.194;16.394;2023-01-28T15:40:01;38.27;;;19.93;;
3991;SDS011;2010;48.194;16.394;2023-01-28T15:42:39;35.13;;;18.87;;
3991;SDS011;2010;48.194;16.394;2023-01-28T15:45:16;37.30;;;20.13;;
3991;SDS011;2010;48.194;16.394;2023-01-28T15:48:02;33.90;;;19.20;;
3991;SDS011;2010;48.194;16.394;2023-01-28T15:50:34;39.67;;;20.23;;
3991;SDS011;2010;48.194;16.394;2023-01-28T15:53:09;40.23;;;18.83;;
3991;SDS011;2010;48.194;16.394;2023-01-28T15:55:42;34.13;;;18.93;;
3991;SDS011;2010;48.194;16.394;2023-01-28T15:58:17;35.90;;;19.33;;
3991;SDS011;2010;48.194;16.394;2023-01-28T16:01:01;39.60;;;20.43;;
3991;SDS011;2010;48.194;16.394;2023-01-28T16:03:43;36.57;;;20.47;;
3991;SDS011;2010;48.194;16.394;2023-01-28T16:06:16;35.20;;;21.00;;
3991;SDS011;2010;48.194;16.394;2023-01-28T16:08:58;38.97;;;21.00;;
3991;SDS011;2010;48.194;16.394;2023-01-28T16:11:42;36.73;;;20.00;;
3991;SDS011;2010;48.194;16.394;2023-01-28T16:14:22;43.07;;;21.03;;
3991;SDS011;2010;48.194;16.394;2023-01-28T16:16:57;34.47;;;19.40;;
3991;SDS011;2010;48.194;16.394;2023-01-28T16:19:36;33.90;;;18.60;;
3991;SDS011;2010;48.194;16.394;2023-01-28T16:22:07;37.60;;;20.40;;
3991;SDS011;2010;48.194;16.394;2023-01-28T16:24:52;39.93;;;20.20;;
3991;SDS011;2010;48.194;16.394;2023-01-28T16:27:21;38.70;;;19.93;;
3991;SDS011;2010;48.194;16.394;2023-01-28T16:29:52;36.97;;;18.73;;
3991;SDS011;2010;48.194;16.394;2023-01-28T16:32:26;31.00;;;18.17;;
3991;SDS011;2010;48.194;16.394;2023-01-28T16:35:01;37.70;;;18.53;;
3991;SDS011;2010;48.194;16.394;2023-01-28T16:37:32;39.03;;;18.80;;
3991;SDS011;2010;48.194;16.394;2023-01-28T16:40:10;34.63;;;18.83;;
3991;SDS011;2010;48.194;16.394;2023-01-28T16:42:44;33.10;;;17.63;;
3991;SDS011;2010;48.194;16.394;2023-01-28T16:45:19;30.67;;;18.17;;
3991;SDS011;2010;48.194;16.394;2023-01-28T16:47:51;33.33;;;18.90;;
3991;SDS011;2010;48.194;16.394;2023-01-28T16:50:33;31.23;;;17.23;;
3991;SDS011;2010;48.194;16.394;2023-01-28T16:53:16;27.10;;;17.27;;
3991;SDS011;2010;48.194;16.394;2023-01-28T16:55:49;28.63;;;17.70;;
3991;SDS011;2010;48.194;16.394;2023-01-28T16:59:01;31.23;;;17.10;;
3991;SDS011;2010;48.194;16.394;2023-01-28T17:01:41;29.13;;;17.50;;
3991;SDS011;2010;48.194;16.394;2023-01-28T17:04:19;32.27;;;16.77;;
3991;SDS011;2010;48.194;16.394;2023-01-28T17:06:49;33.20;;;18.20;;
3991;SDS011;2010;48.194;16.394;2023-01-28T17:09:28;31.53;;;18.40;;
3991;SDS011;2010;48.194;16.394;2023-01-28T17:11:58;31.70;;;17.90;;
3991;SDS011;2010;48.194;16.394;2023-01-28T17:14:44;30.10;;;18.67;;
3991;SDS011;2010;48.194;16.394;2023-01-28T17:17:21;35.17;;;18.90;;
3991;SDS011;2010;48.194;16.394;2023-01-28T17:20:03;32.20;;;17.83;;
3991;SDS011;2010;48.194;16.394;2023-01-28T17:22:51;34.40;;;19.07;;
3991;SDS011;2010;48.194;16.394;2023-01-28T17:25:27;31.30;;;18.83;;
3991;SDS011;2010;48.194;16.394;2023-01-28T17:28:09;35.37;;;18.60;;
3991;SDS011;2010;48.194;16.394;2023-01-28T17:30:49;34.77;;;17.27;;
3991;SDS011;2010;48.194;16.394;2023-01-28T17:33:24;32.70;;;18.20;;
3991;SDS011;2010;48.194;16.394;2023-01-28T17:35:57;23.63;;;16.17;;
3991;SDS011;2010;48.194;16.394;2023-01-28T17:38:32;29.57;;;17.80;;
3991;SDS011;2010;48.194;16.394;2023-01-28T17:41:04;31.50;;;18.47;;
3991;SDS011;2010;48.194;16.394;2023-01-28T17:43:39;29.27;;;16.90;;
3991;SDS011;2010;48.194;16.394;2023-01-28T17:46:15;29.67;;;17.13;;
3991;SDS011;2010;48.194;16.394;2023-01-28T17:48:54;29.73;;;17.17;;
3991;SDS011;2010;48.194;16.394;2023-01-28T17:51:27;27.30;;;16.60;;
3991;SDS011;2010;48.194;16.394;2023-01-28T17:56:56;30.00;;;18.03;;
3991;SDS011;2010;48.194;16.394;2023-01-28T17:59:43;31.53;;;18.07;;
3991;SDS011;2010;48.194;16.394;2023-01-28T18:02:12;29.70;;;17.40;;
3991;SDS011;2010;48.194;16.394;2023-01-28T18:04:55;29.10;;;17.50;;
3991;SDS011;2010;48.194;16.394;2023-01-28T18:07:25;26.07;;;16.37;;
3991;SDS011;2010;48.194;16.394;2023-01-28T18:09:59;27.20;;;15.60;;
3991;SDS011;2010;48.194;16.394;2023-01-28T18:12:32;22.70;;;14.70;;
3991;SDS011;2010;48.194;16.394;2023-01-28T18:15:15;29.07;;;14.70;;
3991;SDS011;2010;48.194;16.394;2023-01-28T18:17:51;25.20;;;15.23;;
3991;SDS011;2010;48.194;16.394;2023-01-28T18:20:30;23.30;;;14.53;;
3991;SDS011;2010;48.194;16.394;2023-01-28T18:23:07;27.53;;;15.63;;
3991;SDS011;2010;48.194;16.394;2023-01-28T18:25:52;22.60;;;14.40;;
3991;SDS011;2010;48.194;16.394;2023-01-28T18:28:26;27.70;;;16.93;;
3991;SDS011;2010;48.194;16.394;2023-01-28T18:31:12;25.30;;;14.17;;
3991;SDS011;2010;48.194;16.394;2023-01-28T18:34:06;21.20;;;14.17;;
3991;SDS011;2010;48.194;16.394;2023-01-28T18:36:36;22.20;;;14.27;;
3991;SDS011;2010;48.194;16.394;2023-01-28T18:39:09;25.63;;;14.50;;
3991;SDS011;2010;48.194;16.394;2023-01-28T18:41:41;20.50;;;14.47;;
3991;SDS011;2010;48.194;16.394;2023-01-28T18:44:11;24.77;;;14.57;;
3991;SDS011;2010;48.194;16.394;2023-01-28T18:46:48;21.30;;;12.97;;
3991;SDS011;2010;48.194;16.394;2023-01-28T18:49:18;22.70;;;14.10;;
3991;SDS011;2010;48.194;16.394;2023-01-28T18:51:57;19.90;;;12.67;;
3991;SDS011;2010;48.194;16.394;2023-01-28T18:54:46;25.50;;;14.30;;
3991;SDS011;2010;48.194;16.394;2023-01-28T18:57:27;20.23;;;12.87;;
3991;SDS011;2010;48.194;16.394;2023-01-28T19:00:18;18.90;;;12.20;;
3991;SDS011;2010;48.194;16.394;2023-01-28T19:03:00;20.10;;;11.17;;
3991;SDS011;2010;48.194;16.394;2023-01-28T19:05:32;18.13;;;12.10;;
3991;SDS011;2010;48.194;16.394;2023-01-28T19:08:09;21.77;;;13.23;;
3991;SDS011;2010;48.194;16.394;2023-01-28T19:10:53;17.23;;;11.27;;
3991;SDS011;2010;48.194;16.394;2023-01-28T19:13:33;18.90;;;12.20;;
3991;SDS011;2010;48.194;16.394;2023-01-28T19:16:11;21.30;;;12.80;;
3991;SDS011;2010;48.194;16.394;2023-01-28T19:18:54;19.93;;;11.70;;
3991;SDS011;2010;48.194;16.394;2023-01-28T19:21:29;21.77;;;11.80;;
3991;SDS011;2010;48.194;16.394;2023-01-28T19:24:00;19.47;;;11.77;;
3991;SDS011;2010;48.194;16.394;2023-01-28T19:26:37;18.97;;;11.50;;
3991;SDS011;2010;48.194;16.394;2023-01-28T19:29:08;17.07;;;11.37;;
3991;SDS011;2010;48.194;16.394;2023-01-28T19:31:54;16.43;;;10.90;;
3991;SDS011;2010;48.194;16.394;2023-01-28T19:34:27;18.30;;;11.23;;
3991;SDS011;2010;48.194;16.394;2023-01-28T19:37:01;16.30;;;11.20;;
3991;SDS011;2010;48.194;16.394;2023-01-28T19:39:35;16.03;;;11.60;;
3991;SDS011;2010;48.194;16.394;2023-01-28T19:42:08;12.93;;;10.30;;
3991;SDS011;2010;48.194;16.394;2023-01-28T19:44:46;18.57;;;10.40;;
3991;SDS011;2010;48.194;16.394;2023-01-28T19:47:18;15.27;;;10.37;;
3991;SDS011;2010;48.194;16.394;2023-01-28T19:49:50;19.13;;;12.07;;
3991;SDS011;2010;48.194;16.394;2023-01-28T19:52:21;14.23;;;10.80;;
3991;SDS011;2010;48.194;16.394;2023-01-28T19:54:52;13.83;;;10.30;;
3991;SDS011;2010;48.194;16.394;2023-01-28T19:57:24;13.77;;;10.57;;
3991;SDS011;2010;48.194;16.394;2023-01-28T19:59:58;17.33;;;10.50;;
3991;SDS011;2010;48.194;16.394;2023-01-28T20:02:33;18.07;;;11.47;;
3991;SDS011;2010;48.194;16.394;2023-01-28T20:05:10;18.33;;;10.63;;
3991;SDS011;2010;48.194;16.394;2023-01-28T20:07:45;15.80;;;10.87;;
3991;SDS011;2010;48.194;16.394;2023-01-28T20:10:16;14.43;;;10.40;;
3991;SDS011;2010;48.194;16.394;2023-01-28T20:12:53;16.83;;;11.43;;
3991;SDS011;2010;48.194;16.394;2023-01-28T20:15:40;13.90;;;10.40;;
3991;SDS011;2010;48.194;16.394;2023-01-28T20:18:20;17.10;;;10.80;;
3991;SDS011;2010;48.194;16.394;2023-01-28T20:20:55;17.50;;;11.43;;
3991;SDS011;2010;48.194;16.394;2023-01-28T20:23:29;15.70;;;11.70;;
3991;SDS011;2010;48.194;16.394;2023-01-28T20:26:04;16.50;;;11.60;;
3991;SDS011;2010;48.194;16.394;2023-01-28T20:28:39;15.67;;;10.03;;
3991;SDS011;2010;48.194;16.394;2023-01-28T20:31:14;15.07;;;10.47;;
3991;SDS011;2010;48.194;16.394;2023-01-28T20:33:50;15.20;;;10.37;;
3991;SDS011;2010;48.194;16.394;2023-01-28T20:36:20;15.43;;;10.77;;
3991;SDS011;2010;48.194;16.394;2023-01-28T20:38:51;16.20;;;10.10;;
3991;SDS011;2010;48.194;16.394;2023-01-28T20:41:24;12.50;;;9.63;;
3991;SDS011;2010;48.194;16.394;2023-01-28T20:44:01;14.43;;;10.20;;
3991;SDS011;2010;48.194;16.394;2023-01-28T20:46:41;19.00;;;11.70;;
3991;SDS011;2010;48.194;16.394;2023-01-28T20:49:20;15.00;;;10.77;;
3991;SDS011;2010;48.194;16.394;2023-01-28T20:51:54;16.43;;;10.23;;
3991;SDS011;2010;48.194;16.394;2023-01-28T20:54:36;12.93;;;10.53;;
3991;SDS011;2010;48.194;16.394;2023-01-28T20:57:29;14.83;;;10.60;;